Time;durP1;ratioP1;P1;durP2;ratioP2;P2;SDS_P1;SDS_P2;PMS_P1;PMS_P2;Temp;Humidity;BMP_temperature;BMP_pressure;BME280_temperature;BME280_humidity;BME280_pressure;Samples;Min_cycle;Max_cycle;Signal;HPM_P1;HPM_P2
2023/03/07 00:01:32;;;;;;;26.75;10.88;;;;;;;2.95;100.00;99337.53;6276291;28;20186;-75
2023/03/07 00:04:34;;;;;;;25.73;10.10;;;;;;;2.99;100.00;99328.69;6275593;28;20468;-75
2023/03/07 00:07:37;;;;;;;29.55;10.90;;;;;;;2.91;100.00;99333.41;6299581;28;20063;-75
2023/03/07 00:10:40;;;;;;;26.77;10.77;;;;;;;2.93;100.00;99321.19;6300675;28;20044;-75
2023/03/07 00:13:41;;;;;;;22.98;9.85;;;;;;;2.94;100.00;99319.41;6300742;28;20048;-75
2023/03/07 00:16:42;;;;;;;24.88;9.70;;;;;;;2.98;100.00;99315.78;6300225;28;20044;-75
2023/03/07 00:19:44;;;;;;;24.17;10.35;;;;;;;2.96;100.00;99313.25;6292348;28;20555;-75
2023/03/07 00:22:46;;;;;;;28.52;9.05;;;;;;;3.01;100.00;99300.91;6300358;28;20352;-75
2023/03/07 00:25:59;;;;;;;19.98;8.65;;;;;;;3.02;100.00;99296.56;6300091;28;20360;-75
2023/03/07 00:29:01;;;;;;;21.20;7.85;;;;;;;2.99;100.00;99294.09;6300261;28;20045;-75
2023/03/07 00:32:02;;;;;;;20.90;8.13;;;;;;;2.99;100.00;99279.38;6298848;28;20048;-75
2023/03/07 00:35:04;;;;;;;20.42;9.02;;;;;;;2.96;100.00;99271.75;6280676;28;20052;-75
2023/03/07 00:38:05;;;;;;;23.13;8.50;;;;;;;2.94;100.00;99277.91;6275177;28;20052;-75
2023/03/07 00:41:10;;;;;;;23.88;7.53;;;;;;;3.02;100.00;99273.22;6275408;28;20049;-75
2023/03/07 00:44:11;;;;;;;24.77;8.85;;;;;;;2.94;100.00;99257.16;6295593;28;20049;-75
2023/03/07 00:47:13;;;;;;;19.23;7.63;;;;;;;2.91;100.00;99252.97;6299919;28;20334;-75
2023/03/07 00:50:14;;;;;;;24.00;9.07;;;;;;;2.97;100.00;99247.47;6295733;28;20141;-75
2023/03/07 00:53:16;;;;;;;22.67;8.93;;;;;;;2.93;100.00;99238.16;6275131;28;20353;-75
2023/03/07 00:56:21;;;;;;;18.25;7.20;;;;;;;2.92;100.00;99233.03;6274976;28;20045;-75
2023/03/07 00:59:22;;;;;;;18.35;8.13;;;;;;;2.95;100.00;99236.34;6275109;28;20041;-75
2023/03/07 01:02:24;;;;;;;16.58;8.02;;;;;;;2.86;100.00;99231.59;6275470;28;20049;-75
2023/03/07 01:05:25;;;;;;;19.05;7.72;;;;;;;2.91;100.00;99223.59;6297102;28;20048;-75
2023/03/07 01:08:26;;;;;;;19.33;8.43;;;;;;;2.87;100.00;99214.25;6299508;28;20052;-75
2023/03/07 01:11:31;;;;;;;20.20;7.88;;;;;;;2.83;100.00;99221.34;6299933;28;20425;-75
2023/03/07 01:14:32;;;;;;;21.98;7.72;;;;;;;2.88;100.00;99200.38;6299584;28;20047;-75
2023/03/07 01:17:33;;;;;;;21.38;7.30;;;;;;;2.88;100.00;99213.34;6289004;28;20059;-75
2023/03/07 01:20:36;;;;;;;18.05;7.97;;;;;;;2.83;100.00;99210.13;6280071;28;20478;-75
2023/03/07 01:23:38;;;;;;;16.13;5.80;;;;;;;2.87;100.00;99202.13;6279839;28;20067;-75
2023/03/07 01:26:40;;;;;;;18.02;7.35;;;;;;;2.89;100.00;99202.03;6279621;28;20457;-75
2023/03/07 01:29:42;;;;;;;18.15;6.60;;;;;;;2.86;100.00;99191.81;6296135;28;20329;-75
2023/03/07 01:32:43;;;;;;;14.23;6.38;;;;;;;2.86;100.00;99186.59;6283459;28;20060;-75
2023/03/07 01:35:44;;;;;;;20.05;7.70;;;;;;;2.80;100.00;99182.56;6296329;28;20064;-75
2023/03/07 01:38:47;;;;;;;15.15;6.63;;;;;;;2.86;100.00;99177.09;6287913;28;20052;-75
2023/03/07 01:41:49;;;;;;;13.02;5.95;;;;;;;2.89;100.00;99176.09;6279561;28;20041;-75
2023/03/07 01:45:00;;;;;;;20.60;7.85;;;;;;;2.88;100.00;99159.69;6279561;28;20045;-76
2023/03/07 01:48:01;;;;;;;17.75;6.75;;;;;;;2.85;100.00;99161.59;6279197;28;20052;-75
2023/03/07 01:51:03;;;;;;;17.83;7.13;;;;;;;2.88;100.00;99164.88;6279226;28;20357;-75
2023/03/07 01:54:06;;;;;;;10.90;5.18;;;;;;;2.89;100.00;99151.00;6279290;28;20056;-76
2023/03/07 01:57:09;;;;;;;19.67;7.28;;;;;;;2.94;100.00;99146.41;6279114;28;20049;-76
2023/03/07 02:00:18;;;;;;;12.00;6.85;;;;;;;2.98;100.00;99162.69;6291025;28;20048;-75
2023/03/07 02:03:27;;;;;;;20.02;7.47;;;;;;;3.00;100.00;99142.72;6291464;28;20458;-76
2023/03/07 02:06:31;;;;;;;14.05;6.18;;;;;;;2.96;100.00;99147.22;6301509;28;20059;-77
2023/03/07 02:09:35;;;;;;;13.27;6.38;;;;;;;3.02;100.00;99144.31;6298684;28;20045;-73
2023/03/07 02:12:39;;;;;;;14.35;6.10;;;;;;;2.93;100.00;99144.75;6291945;28;20049;-73
2023/03/07 02:15:40;;;;;;;14.25;6.40;;;;;;;2.92;100.00;99147.44;6291508;28;20055;-73
2023/03/07 02:18:44;;;;;;;12.82;6.72;;;;;;;2.95;100.00;99135.16;6301870;28;20040;-74
2023/03/07 02:21:53;;;;;;;18.13;7.30;;;;;;;2.88;100.00;99144.13;6301892;28;20048;-73
2023/03/07 02:24:59;;;;;;;13.32;6.80;;;;;;;2.88;100.00;99144.13;6301680;28;20384;-74
2023/03/07 02:28:03;;;;;;;13.38;6.90;;;;;;;2.95;100.00;99136.88;6301173;28;20452;-75
2023/03/07 02:31:07;;;;;;;18.25;7.40;;;;;;;2.87;100.00;99139.88;6301893;28;20076;-73
2023/03/07 02:34:19;;;;;;;12.13;5.60;;;;;;;2.92;100.00;99122.31;6299264;28;20041;-73
2023/03/07 02:37:25;;;;;;;21.77;7.10;;;;;;;2.87;100.00;99132.06;6301442;28;20210;-73
2023/03/07 02:40:31;;;;;;;14.43;7.63;;;;;;;2.96;100.00;99123.03;6301375;28;20036;-75
2023/03/07 02:43:33;;;;;;;14.65;6.93;;;;;;;2.93;100.00;99123.16;6301684;28;20052;-74
2023/03/07 02:46:35;;;;;;;11.85;5.70;;;;;;;2.88;100.00;99131.16;6301115;28;20060;-74
2023/03/07 02:49:36;;;;;;;11.63;5.60;;;;;;;2.82;100.00;99130.59;6301422;28;20048;-73
2023/03/07 02:52:38;;;;;;;17.55;6.20;;;;;;;2.81;100.00;99129.75;6301299;28;20048;-75
2023/03/07 02:55:39;;;;;;;12.48;6.25;;;;;;;2.84;100.00;99124.44;6301465;28;20048;-74
2023/03/07 02:58:42;;;;;;;15.27;5.95;;;;;;;2.83;100.00;99130.53;6301036;28;20437;-75
2023/03/07 03:01:43;;;;;;;15.80;6.60;;;;;;;2.71;100.00;99138.91;6301025;28;20045;-74
2023/03/07 03:04:45;;;;;;;10.98;6.35;;;;;;;2.72;100.00;99133.63;6285196;28;20060;-74
2023/03/07 03:07:47;;;;;;;14.05;5.45;;;;;;;2.72;100.00;99130.19;6264724;28;997958;-74
2023/03/07 03:10:52;;;;;;;10.48;5.25;;;;;;;2.73;100.00;99118.94;6302277;28;20045;-74
2023/03/07 03:13:55;;;;;;;15.27;5.93;;;;;;;2.69;100.00;99118.22;6300698;28;20044;-74
2023/03/07 03:16:57;;;;;;;10.80;5.95;;;;;;;2.67;100.00;99124.38;6295533;28;20049;-73
2023/03/07 03:19:58;;;;;;;11.55;5.97;;;;;;;2.70;100.00;99122.50;6301785;28;20340;-74
2023/03/07 03:22:59;;;;;;;11.70;5.82;;;;;;;2.71;100.00;99110.38;6302095;28;20048;-74
2023/03/07 03:26:03;;;;;;;12.90;6.38;;;;;;;2.68;100.00;99113.97;6301692;28;20348;-74
2023/03/07 03:29:06;;;;;;;16.67;8.00;;;;;;;2.72;100.00;99114.63;6302144;28;20052;-73
2023/03/07 03:32:08;;;;;;;14.82;7.03;;;;;;;2.75;100.00;99122.28;6281927;28;20341;-74
2023/03/07 03:35:10;;;;;;;17.95;6.75;;;;;;;2.78;100.00;99112.59;6283069;28;20326;-74
2023/03/07 03:38:12;;;;;;;20.45;7.97;;;;;;;2.80;100.00;99110.75;6297627;28;20083;-74
2023/03/07 03:41:15;;;;;;;16.75;6.43;;;;;;;2.80;100.00;99108.16;6301689;28;20040;-75
2023/03/07 03:44:18;;;;;;;10.60;5.90;;;;;;;2.80;100.00;99115.13;6301254;28;20067;-74
2023/03/07 03:47:19;;;;;;;14.13;6.47;;;;;;;2.85;100.00;99104.53;6292324;28;20041;-74
2023/03/07 03:50:21;;;;;;;8.93;4.82;;;;;;;2.88;100.00;99109.56;6301610;28;20437;-74
2023/03/07 03:53:22;;;;;;;13.60;6.65;;;;;;;2.91;100.00;99107.66;6279805;28;20056;-75
2023/03/07 03:56:25;;;;;;;11.35;6.10;;;;;;;2.88;100.00;99117.34;6289826;28;20048;-74
2023/03/07 03:59:28;;;;;;;16.27;6.80;;;;;;;2.93;100.00;99112.78;6301144;28;20055;-74
2023/03/07 04:02:31;;;;;;;11.10;5.80;;;;;;;2.92;100.00;99111.09;6301067;28;20053;-74
2023/03/07 04:05:33;;;;;;;13.32;5.72;;;;;;;2.95;100.00;99111.81;6298970;28;20052;-74
2023/03/07 04:08:37;;;;;;;14.25;6.38;;;;;;;2.97;100.00;99098.75;6300627;28;20052;-74
2023/03/07 04:11:38;;;;;;;10.82;5.78;;;;;;;2.97;100.00;99097.00;6300834;28;20059;-74
2023/03/07 04:14:41;;;;;;;11.13;5.05;;;;;;;3.04;100.00;99094.91;6300080;28;20352;-74
2023/03/07 04:17:42;;;;;;;9.45;5.43;;;;;;;3.05;100.00;99081.88;6300379;28;20044;-75
2023/03/07 04:20:44;;;;;;;12.52;4.53;;;;;;;3.02;100.00;99091.56;6292321;28;20041;-74
2023/03/07 04:23:48;;;;;;;8.70;4.40;;;;;;;3.07;100.00;99086.16;6275705;28;20055;-74
2023/03/07 04:26:49;;;;;;;7.72;4.68;;;;;;;3.12;100.00;99087.59;6275587;28;20060;-74
2023/03/07 04:29:52;;;;;;;7.47;3.72;;;;;;;3.12;100.00;99079.81;6275529;28;20052;-74
2023/03/07 04:32:53;;;;;;;6.38;3.58;;;;;;;3.20;100.00;99076.84;6275175;28;20361;-75
2023/03/07 04:35:54;;;;;;;7.38;4.00;;;;;;;3.21;100.00;99084.53;6291317;28;20059;-75
2023/03/07 04:38:56;;;;;;;11.70;3.47;;;;;;;3.19;100.00;99068.22;6287698;28;20490;-74
2023/03/07 04:41:57;;;;;;;4.13;2.40;;;;;;;3.16;100.00;99070.97;6282354;28;20052;-74
2023/03/07 04:45:00;;;;;;;6.22;3.20;;;;;;;3.11;100.00;99062.56;6261003;28;20048;-74
2023/03/07 04:48:01;;;;;;;4.97;2.38;;;;;;;3.15;100.00;99068.47;6279208;28;20056;-74
2023/03/07 04:51:03;;;;;;;9.98;2.22;;;;;;;3.08;100.00;99065.31;6277892;28;20048;-74
2023/03/07 04:54:05;;;;;;;2.03;1.50;;;;;;;2.99;100.00;99061.41;6277820;28;20533;-74
2023/03/07 04:57:07;;;;;;;0.85;0.70;;;;;;;3.00;100.00;99068.31;6279348;28;20478;-75
2023/03/07 05:00:11;;;;;;;1.38;1.00;;;;;;;2.87;100.00;99064.63;6279202;28;20036;-75
2023/03/07 05:03:14;;;;;;;2.00;1.15;;;;;;;2.91;100.00;99057.53;6277999;28;20044;-75
2023/03/07 05:06:16;;;;;;;0.90;0.50;;;;;;;2.81;100.00;99067.50;6282344;28;20506;-74
2023/03/07 05:09:17;;;;;;;2.85;0.88;;;;;;;2.81;100.00;99059.72;6281055;28;20040;-74
2023/03/07 05:12:19;;;;;;;5.03;0.90;;;;;;;2.79;100.00;99064.16;6282744;28;20490;-74
2023/03/07 05:15:21;;;;;;;0.73;0.50;;;;;;;2.80;100.00;99063.25;6279661;28;20043;-74
2023/03/07 05:18:23;;;;;;;0.95;0.50;;;;;;;2.82;100.00;99055.38;6265022;28;20041;-74
2023/03/07 05:21:24;;;;;;;0.93;0.70;;;;;;;2.82;100.00;99045.84;6255795;28;20041;-74
2023/03/07 05:24:26;;;;;;;3.83;0.30;;;;;;;2.86;100.00;99037.03;6296228;28;20352;-74
2023/03/07 05:27:27;;;;;;;0.50;0.50;;;;;;;2.85;100.00;99035.31;6274839;28;20044;-74
2023/03/07 05:30:30;;;;;;;1.80;0.95;;;;;;;2.82;100.00;99039.81;6279811;28;20041;-74
2023/03/07 05:33:31;;;;;;;1.75;0.88;;;;;;;2.84;100.00;99041.44;6276777;28;20051;-74
2023/03/07 05:36:32;;;;;;;2.03;0.70;;;;;;;2.87;100.00;99045.63;6285651;28;20131;-74
2023/03/07 05:39:34;;;;;;;2.97;0.55;;;;;;;2.86;100.00;99047.41;6299349;28;20383;-74
2023/03/07 05:42:35;;;;;;;2.65;0.60;;;;;;;2.88;100.00;99042.94;6299664;28;20051;-74
2023/03/07 05:45:38;;;;;;;0.95;0.65;;;;;;;2.87;100.00;99041.28;6299209;28;20505;-74
2023/03/07 05:48:40;;;;;;;1.33;0.70;;;;;;;2.89;100.00;99043.78;6297834;28;20061;-73
2023/03/07 05:51:41;;;;;;;1.98;0.50;;;;;;;2.91;100.00;99041.97;6284996;28;20448;-75
2023/03/07 05:54:42;;;;;;;1.70;0.70;;;;;;;2.96;100.00;99053.81;6287163;28;20056;-76
2023/03/07 05:57:44;;;;;;;3.22;0.52;;;;;;;2.93;100.00;99055.69;6286763;28;20052;-77
2023/03/07 06:00:47;;;;;;;0.52;0.45;;;;;;;2.92;100.00;99057.47;6293806;28;20548;-77
2023/03/07 06:03:48;;;;;;;1.20;0.80;;;;;;;2.98;100.00;99061.50;6301573;28;20040;-77
2023/03/07 06:06:49;;;;;;;1.92;0.77;;;;;;;3.02;100.00;99057.84;6294375;28;20338;-76
2023/03/07 06:09:50;;;;;;;10.98;0.55;;;;;;;2.99;100.00;99063.16;6278718;28;20045;-76
2023/03/07 06:12:52;;;;;;;0.95;0.50;;;;;;;2.93;100.00;99053.94;6288387;28;20053;-75
2023/03/07 06:15:55;;;;;;;2.45;0.57;;;;;;;2.97;100.00;99065.00;6293751;28;20045;-76
2023/03/07 06:18:56;;;;;;;1.85;0.50;;;;;;;2.99;100.00;99058.81;6293428;28;20056;-76
2023/03/07 06:21:58;;;;;;;0.40;0.40;;;;;;;3.04;100.00;99063.78;6293306;28;20049;-76
2023/03/07 06:24:59;;;;;;;1.80;0.50;;;;;;;2.99;100.00;99071.78;6296021;28;20079;-76
2023/03/07 06:28:01;;;;;;;1.23;0.45;;;;;;;3.00;100.00;99063.13;6292711;28;20437;-76
2023/03/07 06:31:09;;;;;;;0.80;0.47;;;;;;;3.02;100.00;99063.88;6278412;28;20045;-76
2023/03/07 06:34:10;;;;;;;0.87;0.37;;;;;;;3.07;100.00;99065.41;6291449;28;20048;-76
2023/03/07 06:37:12;;;;;;;6.28;0.77;;;;;;;3.06;100.00;99067.16;6302869;28;20048;-76
2023/03/07 06:40:13;;;;;;;2.50;0.43;;;;;;;3.09;100.00;99061.81;6286543;28;20048;-76
2023/03/07 06:43:14;;;;;;;4.57;0.80;;;;;;;3.09;100.00;99074.81;6298667;28;20075;-77
2023/03/07 06:46:17;;;;;;;3.22;0.38;;;;;;;3.09;100.00;99071.34;6299088;28;20051;-76
2023/03/07 06:49:18;;;;;;;1.88;0.60;;;;;;;3.13;100.00;99075.47;6302645;28;20345;-76
2023/03/07 06:52:20;;;;;;;2.30;0.50;;;;;;;3.09;100.00;99074.81;6281258;28;20044;-76
2023/03/07 06:55:21;;;;;;;1.23;0.40;;;;;;;3.15;100.00;99069.28;6291282;28;20066;-76
2023/03/07 06:58:22;;;;;;;1.80;0.65;;;;;;;3.15;100.00;99082.28;6297169;28;20055;-75
2023/03/07 07:01:25;;;;;;;3.13;0.35;;;;;;;3.16;100.00;99083.09;6279099;28;20059;-75
2023/03/07 07:04:26;;;;;;;10.38;1.45;;;;;;;3.17;100.00;99074.41;6302477;28;20344;-76
2023/03/07 07:07:28;;;;;;;0.93;0.45;;;;;;;3.22;100.00;99072.41;6287948;28;20048;-76
2023/03/07 07:10:29;;;;;;;0.68;0.50;;;;;;;3.21;100.00;99070.72;6277781;28;20056;-76
2023/03/07 07:13:30;;;;;;;4.15;1.02;;;;;;;3.26;100.00;99072.19;6299399;28;20429;-76
2023/03/07 07:16:35;;;;;;;4.57;1.15;;;;;;;3.27;100.00;99078.19;6300463;28;20063;-76
2023/03/07 07:19:36;;;;;;;2.72;1.00;;;;;;;3.27;100.00;99081.66;6296180;28;20056;-75
2023/03/07 07:22:37;;;;;;;7.22;1.45;;;;;;;3.30;100.00;99084.09;6292644;28;20048;-75
2023/03/07 07:25:39;;;;;;;1.52;0.77;;;;;;;3.39;100.00;99082.78;6292304;28;20059;-75
2023/03/07 07:28:40;;;;;;;1.35;0.70;;;;;;;3.38;100.00;99078.50;6292357;28;20060;-76
2023/03/07 07:31:43;;;;;;;1.25;0.70;;;;;;;3.47;100.00;99085.84;6290427;28;20365;-76
2023/03/07 07:34:44;;;;;;;4.97;1.48;;;;;;;3.49;100.00;99078.78;6288857;28;20041;-76
2023/03/07 07:37:45;;;;;;;9.45;1.20;;;;;;;3.47;100.00;99080.66;6283462;28;20052;-76
2023/03/07 07:40:47;;;;;;;4.97;1.42;;;;;;;3.40;100.00;99088.81;6279285;28;20060;-76
2023/03/07 07:43:49;;;;;;;5.38;1.20;;;;;;;3.45;100.00;99090.28;6275583;28;20052;-77
2023/03/07 07:46:52;;;;;;;5.63;0.88;;;;;;;3.50;100.00;99088.28;6293840;28;20506;-77
2023/03/07 07:49:53;;;;;;;9.30;1.90;;;;;;;3.55;100.00;99085.44;6299436;28;20044;-76
2023/03/07 07:52:54;;;;;;;3.90;0.77;;;;;;;3.51;100.00;99095.16;6291220;28;20052;-77
2023/03/07 07:55:56;;;;;;;4.32;0.70;;;;;;;3.58;100.00;99093.06;6285423;28;20049;-76
2023/03/07 07:58:57;;;;;;;1.02;0.70;;;;;;;3.71;100.00;99081.13;6281286;28;20170;-76
2023/03/07 08:02:00;;;;;;;4.18;0.65;;;;;;;3.68;100.00;99081.31;6290815;28;20052;-75
2023/03/07 08:05:01;;;;;;;6.68;1.98;;;;;;;3.76;100.00;99080.88;6276947;28;20049;-76
2023/03/07 08:08:04;;;;;;;2.72;0.47;;;;;;;3.78;100.00;99105.88;6277805;28;20396;-77
2023/03/07 08:11:07;;;;;;;4.65;0.70;;;;;;;3.73;100.00;99091.47;6280777;28;20045;-77
2023/03/07 08:14:09;;;;;;;1.08;0.80;;;;;;;3.76;100.00;99089.53;6292205;28;20044;-77
2023/03/07 08:17:11;;;;;;;6.60;1.25;;;;;;;3.79;100.00;99093.72;6283691;28;20054;-77
2023/03/07 08:20:13;;;;;;;3.60;0.75;;;;;;;3.79;100.00;99096.31;6279461;28;20340;-77
2023/03/07 08:23:14;;;;;;;1.27;0.57;;;;;;;3.77;100.00;99095.56;6296427;28;20345;-77
2023/03/07 08:26:16;;;;;;;3.88;1.10;;;;;;;3.86;100.00;99100.28;6296146;28;20040;-77
2023/03/07 08:29:17;;;;;;;3.20;0.75;;;;;;;3.83;100.00;99095.25;6300429;28;20046;-77
2023/03/07 08:32:20;;;;;;;1.55;0.73;;;;;;;3.78;100.00;99098.09;6296348;28;20056;-77
2023/03/07 08:35:22;;;;;;;3.88;0.60;;;;;;;3.76;100.00;99099.91;6286821;28;20052;-77
2023/03/07 08:38:25;;;;;;;0.75;0.45;;;;;;;3.77;100.00;99109.41;6283387;28;20044;-76
2023/03/07 08:41:26;;;;;;;3.90;1.25;;;;;;;3.75;100.00;99107.78;6292119;28;20040;-76
2023/03/07 08:44:28;;;;;;;3.63;0.80;;;;;;;3.67;100.00;99109.94;6300056;28;20052;-77
2023/03/07 08:47:30;;;;;;;8.15;1.48;;;;;;;3.65;100.00;99130.81;6300265;28;20064;-77
2023/03/07 08:50:32;;;;;;;2.05;0.30;;;;;;;3.62;100.00;99122.31;6299983;28;20048;-77
2023/03/07 08:53:33;;;;;;;3.60;1.02;;;;;;;3.56;100.00;99116.53;6299998;28;20048;-76
2023/03/07 08:56:35;;;;;;;7.57;0.60;;;;;;;3.54;100.00;99105.41;6292724;28;20045;-76
2023/03/07 08:59:36;;;;;;;7.85;1.17;;;;;;;3.51;100.00;99112.50;6279398;28;20441;-76
2023/03/07 09:02:39;;;;;;;4.25;0.50;;;;;;;3.48;100.00;99115.25;6283008;28;20051;-76
2023/03/07 09:05:40;;;;;;;0.80;0.30;;;;;;;3.49;100.00;99120.34;6287277;28;20045;-75
2023/03/07 09:08:41;;;;;;;4.07;1.10;;;;;;;3.45;100.00;99118.84;6287380;28;20049;-76
2023/03/07 09:11:43;;;;;;;2.70;0.85;;;;;;;3.52;100.00;99116.75;6288199;28;20433;-75
2023/03/07 09:14:44;;;;;;;3.40;0.43;;;;;;;3.54;100.00;99122.72;6285738;28;20049;-75
2023/03/07 09:17:47;;;;;;;2.33;0.50;;;;;;;3.58;100.00;99124.22;6291954;28;20048;-77
2023/03/07 09:20:48;;;;;;;5.35;0.85;;;;;;;3.58;100.00;99120.81;6299571;28;20123;-75
2023/03/07 09:23:49;;;;;;;5.15;1.20;;;;;;;3.55;100.00;99127.84;6292842;28;20040;-76
2023/03/07 09:26:51;;;;;;;3.50;0.60;;;;;;;3.43;100.00;99122.44;6289224;28;20052;-76
2023/03/07 09:29:53;;;;;;;0.82;0.47;;;;;;;3.40;100.00;99131.19;6286111;28;20333;-75
2023/03/07 09:32:55;;;;;;;4.35;0.77;;;;;;;3.26;100.00;99129.28;6288742;28;20041;-76
2023/03/07 09:35:57;;;;;;;0.60;0.60;;;;;;;3.14;100.00;99134.25;6292986;28;20048;-75
2023/03/07 09:38:58;;;;;;;0.45;0.30;;;;;;;3.11;100.00;99140.44;6303978;28;20048;-76
2023/03/07 09:42:09;;;;;;;5.10;0.90;;;;;;;3.04;100.00;99137.31;6299341;28;20044;-75
2023/03/07 09:45:23;;;;;;;1.95;0.85;;;;;;;2.95;100.00;99135.16;6301684;28;20368;-75
2023/03/07 09:48:51;;;;;;;0.43;0.35;;;;;;;3.04;100.00;99139.03;6304142;28;20425;-76
2023/03/07 09:51:57;;;;;;;3.17;0.63;;;;;;;3.08;100.00;99147.50;6296250;28;20429;-75
2023/03/07 09:55:01;;;;;;;1.75;0.73;;;;;;;3.12;100.00;99146.47;6299275;28;20055;-76
2023/03/07 09:58:08;;;;;;;2.03;0.63;;;;;;;2.92;100.00;99144.84;6303659;28;20052;-76
2023/03/07 10:01:14;;;;;;;0.95;0.47;;;;;;;2.84;100.00;99158.16;6298329;28;20037;-76
2023/03/07 10:04:22;;;;;;;0.95;0.57;;;;;;;2.77;100.00;99157.63;6303820;28;20059;-76
2023/03/07 10:07:26;;;;;;;8.03;1.00;;;;;;;2.71;100.00;99170.84;6303485;28;20493;-76
2023/03/07 10:10:35;;;;;;;0.60;0.43;;;;;;;2.64;100.00;99160.84;6303814;28;20044;-76
2023/03/07 10:13:53;;;;;;;0.68;0.65;;;;;;;2.64;100.00;99158.25;6303602;28;20429;-75
2023/03/07 10:17:05;;;;;;;2.53;0.60;;;;;;;2.54;100.00;99168.19;6285606;28;20425;-75
2023/03/07 10:20:17;;;;;;;1.98;1.65;;;;;;;2.41;100.00;99156.72;6278553;28;20349;-76
2023/03/07 10:23:40;;;;;;;1.77;0.88;;;;;;;2.24;100.00;99170.44;6278593;28;20056;-76
2023/03/07 10:26:49;;;;;;;0.80;0.80;;;;;;;2.20;100.00;99169.72;6278133;28;20120;-75
2023/03/07 10:29:53;;;;;;;0.40;0.40;;;;;;;2.19;100.00;99168.06;6286411;28;20052;-76
2023/03/07 10:32:57;;;;;;;0.82;0.50;;;;;;;2.17;100.00;99158.66;6302824;28;20040;-76
2023/03/07 10:36:06;;;;;;;1.13;0.55;;;;;;;2.20;100.00;99154.19;6302703;28;20080;-76
2023/03/07 10:39:21;;;;;;;3.90;0.70;;;;;;;2.38;100.00;99146.50;6291478;28;20429;-76
2023/03/07 10:42:24;;;;;;;9.95;0.90;;;;;;;2.46;100.00;99150.41;6291729;28;20051;-75
2023/03/07 10:45:29;;;;;;;0.45;0.45;;;;;;;2.50;100.00;99146.78;6302696;28;20064;-75
2023/03/07 10:48:31;;;;;;;2.80;0.65;;;;;;;2.49;100.00;99147.66;6302615;28;20044;-75
2023/03/07 10:51:49;;;;;;;1.50;0.77;;;;;;;2.63;100.00;99146.19;6302725;28;20451;-75
2023/03/07 10:54:50;;;;;;;6.03;1.25;;;;;;;2.66;100.00;99144.31;6295152;28;20355;-76
2023/03/07 10:57:52;;;;;;;1.73;0.80;;;;;;;2.72;100.00;99133.63;6302282;28;20059;-76
2023/03/07 11:01:14;;;;;;;2.15;0.63;;;;;;;2.78;100.00;99145.50;6300755;28;20086;-76
2023/03/07 11:04:22;;;;;;;3.10;1.00;;;;;;;2.80;100.00;99125.50;6293925;28;20047;-76
2023/03/07 11:07:27;;;;;;;1.95;0.68;;;;;;;2.77;100.00;99136.00;6301127;28;20448;-76
2023/03/07 11:10:34;;;;;;;0.40;0.40;;;;;;;2.86;100.00;99140.78;6289405;28;20258;-75
2023/03/07 11:13:35;;;;;;;0.82;0.50;;;;;;;2.93;100.00;99136.97;6292159;28;20051;-75
2023/03/07 11:16:41;;;;;;;1.98;0.57;;;;;;;3.02;100.00;99130.50;6293065;28;20052;-77
2023/03/07 11:19:44;;;;;;;0.80;0.65;;;;;;;2.95;100.00;99135.16;6291407;28;20132;-76
2023/03/07 11:22:46;;;;;;;3.15;0.80;;;;;;;3.11;100.00;99137.00;6288668;28;20051;-77
2023/03/07 11:25:48;;;;;;;0.57;0.57;;;;;;;3.09;100.00;99137.09;6290343;28;20051;-75
2023/03/07 11:29:04;;;;;;;2.10;0.45;;;;;;;3.21;100.00;99138.22;6290202;28;20052;-76
2023/03/07 11:32:13;;;;;;;0.30;0.30;;;;;;;3.24;100.00;99140.69;6288707;28;20041;-77
2023/03/07 11:35:17;;;;;;;;;;;;;;;3.21;100.00;99133.03;6297860;28;20048;-77
2023/03/07 11:38:31;;;;;;;0.40;0.30;;;;;;;3.26;100.00;99142.25;6301526;28;19924;-76
2023/03/07 11:41:36;;;;;;;2.17;0.77;;;;;;;3.24;100.00;99144.09;6293957;28;20045;-75
2023/03/07 11:44:45;;;;;;;3.20;0.50;;;;;;;3.36;100.00;99132.28;6281931;28;20052;-74
2023/03/07 11:47:59;;;;;;;3.33;0.88;;;;;;;3.38;100.00;99135.63;6284610;28;20060;-75
2023/03/07 11:51:03;;;;;;;5.78;1.25;;;;;;;3.38;100.00;99152.97;6301297;28;20048;-74
2023/03/07 11:54:18;;;;;;;1.08;0.90;;;;;;;3.45;100.00;99141.34;6301158;28;20135;-75
2023/03/07 11:57:35;;;;;;;0.47;0.47;;;;;;;3.52;100.00;99148.75;6300985;28;20052;-75
2023/03/07 12:00:47;;;;;;;3.42;0.80;;;;;;;3.55;100.00;99148.63;6290423;28;20367;-75
2023/03/07 12:04:11;;;;;;;1.17;0.50;;;;;;;3.53;100.00;99147.00;6294333;28;20047;-74
2023/03/07 12:07:29;;;;;;;9.73;1.40;;;;;;;3.62;100.00;99138.75;6291506;28;20036;-74
2023/03/07 12:10:44;;;;;;;4.55;0.90;;;;;;;3.75;100.00;99144.16;6289717;28;20127;-75
2023/03/07 12:13:56;;;;;;;2.55;0.88;;;;;;;3.69;100.00;99153.13;6291720;28;20356;-76
2023/03/07 12:17:09;;;;;;;0.63;0.57;;;;;;;3.56;100.00;99184.06;6281208;28;20426;-75
2023/03/07 12:20:23;;;;;;;1.55;0.75;;;;;;;2.34;100.00;99182.06;6275709;28;20053;-76
2023/03/07 12:23:35;;;;;;;3.05;0.28;;;;;;;2.02;100.00;99199.03;6297718;28;20143;-75
2023/03/07 12:26:47;;;;;;;2.78;0.77;;;;;;;1.61;100.00;99190.44;6300401;28;20044;-76
2023/03/07 12:29:55;;;;;;;4.00;0.50;;;;;;;1.41;100.00;99207.66;6298682;28;20045;-75
2023/03/07 12:32:57;;;;;;;7.22;0.82;;;;;;;1.42;100.00;99182.59;6300453;28;20507;-75
2023/03/07 12:36:03;;;;;;;0.38;0.38;;;;;;;1.59;100.00;99179.28;6299913;28;20395;-77
2023/03/07 12:39:14;;;;;;;1.30;0.57;;;;;;;1.72;100.00;99181.31;6297710;28;20053;-76
2023/03/07 12:42:22;;;;;;;0.40;0.20;;;;;;;1.80;100.00;99177.56;6275301;28;20451;-77
2023/03/07 12:45:27;;;;;;;0.43;0.40;;;;;;;1.87;100.00;99181.59;6275409;28;20048;-76
2023/03/07 12:48:37;;;;;;;0.88;0.30;;;;;;;1.91;100.00;99180.53;6275219;28;20147;-78
2023/03/07 12:51:41;;;;;;;2.03;0.80;;;;;;;2.06;100.00;99173.84;6275583;28;20044;-77
2023/03/07 12:54:55;;;;;;;6.88;0.30;;;;;;;2.18;100.00;99166.38;6299841;28;20048;-75
2023/03/07 12:58:04;;;;;;;3.22;0.50;;;;;;;2.32;100.00;99162.31;6291687;28;20048;-75
2023/03/07 13:01:12;;;;;;;0.20;0.20;;;;;;;2.46;100.00;99172.91;6299991;28;20051;-75
2023/03/07 13:04:17;;;;;;;1.45;0.60;;;;;;;2.47;100.00;99165.06;6299416;28;20474;-76
2023/03/07 13:07:24;;;;;;;6.18;0.30;;;;;;;2.46;100.00;99172.91;6299646;28;20056;-76
2023/03/07 13:10:26;;;;;;;2.55;0.20;;;;;;;2.49;100.00;99170.16;6300417;28;20044;-75
2023/03/07 13:13:54;;;;;;;0.85;0.43;;;;;;;2.50;100.00;99177.06;6298835;28;20045;-76
2023/03/07 13:16:55;;;;;;;6.72;0.57;;;;;;;2.54;100.00;99168.19;6284573;28;20095;-75
2023/03/07 13:19:58;;;;;;;2.17;0.60;;;;;;;2.62;100.00;99168.69;6280238;28;20457;-75
2023/03/07 13:23:12;;;;;;;0.10;0.10;;;;;;;2.78;100.00;99167.06;6281998;28;20430;-75
2023/03/07 13:26:13;;;;;;;2.35;0.40;;;;;;;2.89;100.00;99163.97;6304602;28;20056;-75
2023/03/07 13:29:38;;;;;;;4.28;0.45;;;;;;;2.99;100.00;99170.38;6302791;28;20080;-75
2023/03/07 13:32:59;;;;;;;3.00;0.80;;;;;;;3.07;100.00;99172.63;6304341;28;20052;-76
2023/03/07 13:36:00;;;;;;;1.45;0.57;;;;;;;3.15;100.00;99172.28;6298028;28;20044;-76
2023/03/07 13:39:02;;;;;;;0.30;0.30;;;;;;;3.23;100.00;99165.78;6301839;28;20052;-77
2023/03/07 13:42:04;;;;;;;0.88;0.13;;;;;;;3.24;100.00;99166.63;6279381;28;20456;-76
2023/03/07 13:45:35;;;;;;;0.30;0.20;;;;;;;3.25;100.00;99173.50;6279226;28;20051;-76
2023/03/07 13:49:02;;;;;;;0.28;0.17;;;;;;;3.27;100.00;99174.25;6284541;28;20433;-77
2023/03/07 13:52:42;;;;;;;2.55;0.38;;;;;;;3.32;100.00;99185.28;6298602;28;20087;-76
2023/03/07 13:55:46;;;;;;;1.75;0.47;;;;;;;3.38;100.00;99189.31;6303966;28;20045;-76
2023/03/07 13:58:52;;;;;;;9.32;0.68;;;;;;;3.37;100.00;99191.09;6295597;28;20048;-76
2023/03/07 14:01:58;;;;;;;2.90;0.43;;;;;;;3.40;100.00;99193.50;6303873;28;20051;-76
2023/03/07 14:05:03;;;;;;;0.90;0.50;;;;;;;3.44;100.00;99189.00;6303586;28;20143;-75
2023/03/07 14:08:05;;;;;;;3.85;0.90;;;;;;;3.43;100.00;99185.56;6292534;28;20064;-75
2023/03/07 14:11:16;;;;;;;3.13;0.30;;;;;;;3.41;100.00;99190.03;6278897;28;20429;-76
2023/03/07 14:14:51;;;;;;;1.95;0.70;;;;;;;3.47;100.00;99183.69;6279708;28;20048;-76
2023/03/07 14:18:11;;;;;;;5.28;0.80;;;;;;;3.54;100.00;99188.50;6258217;28;20049;-75
2023/03/07 14:21:27;;;;;;;4.78;1.02;;;;;;;3.54;100.00;99185.91;6303479;28;20049;-76
2023/03/07 14:24:40;;;;;;;4.47;0.55;;;;;;;3.56;100.00;99176.25;6302631;28;20056;-76
2023/03/07 14:27:51;;;;;;;3.35;0.52;;;;;;;3.55;100.00;99184.16;6298290;28;20049;-76